Time;durP1;ratioP1;P1;durP2;ratioP2;P2;SDS_P1;SDS_P2;PMS_P1;PMS_P2;Temp;Humidity;BMP_temperature;BMP_pressure;BME280_temperature;BME280_humidity;BME280_pressure;Samples;Min_cycle;Max_cycle;Signal;HPM_P1;HPM_P2
2022/07/19 00:00:17;;;;;;;23.23;21.45;;;15.50;99.90;;;;;;4982657;28;20501;-72
2022/07/19 00:02:44;;;;;;;23.20;21.52;;;15.60;99.90;;;;;;4962769;28;20050;-72
2022/07/19 00:05:12;;;;;;;23.50;21.98;;;15.40;99.90;;;;;;4968979;28;20665;-72
2022/07/19 00:07:41;;;;;;;22.80;21.10;;;15.40;99.90;;;;;;4962627;28;20053;-72
2022/07/19 00:10:10;;;;;;;23.33;21.67;;;15.30;99.90;;;;;;4975855;28;20034;-72
2022/07/19 00:12:38;;;;;;;23.08;21.58;;;15.20;99.90;;;;;;4983875;28;21849;-72
2022/07/19 00:15:07;;;;;;;23.13;21.60;;;15.10;99.90;;;;;;4963678;28;20046;-72
2022/07/19 00:17:40;;;;;;;23.27;21.80;;;15.00;99.90;;;;;;4962178;28;20450;-72
2022/07/19 00:20:08;;;;;;;23.65;22.02;;;15.00;99.90;;;;;;4997670;28;20049;-72
2022/07/19 00:22:35;;;;;;;24.27;22.58;;;14.90;99.90;;;;;;4992381;28;20041;-71
2022/07/19 00:25:02;;;;;;;23.88;22.30;;;14.80;99.90;;;;;;4972666;28;20037;-72
2022/07/19 00:27:29;;;;;;;23.00;21.40;;;14.90;99.90;;;;;;4989200;28;20034;-72
2022/07/19 00:29:56;;;;;;;23.63;21.92;;;14.90;99.90;;;;;;4982129;28;20038;-72
2022/07/19 00:32:22;;;;;;;22.60;21.20;;;14.80;99.90;;;;;;4964243;28;20042;-72
2022/07/19 00:34:49;;;;;;;22.88;21.30;;;14.90;99.90;;;;;;4951281;28;20061;-72
2022/07/19 00:37:16;;;;;;;22.67;21.13;;;14.80;99.90;;;;;;5056888;23;20044;-77
2022/07/19 00:39:43;;;;;;;23.05;21.50;;;14.90;99.90;;;;;;5066676;28;20040;-76
2022/07/19 00:42:10;;;;;;;22.30;20.77;;;14.90;99.90;;;;;;5060752;28;20039;-77
2022/07/19 00:44:37;;;;;;;22.95;21.17;;;14.90;99.90;;;;;;5044450;28;20048;-77
2022/07/19 00:47:05;;;;;;;22.42;20.67;;;14.70;99.90;;;;;;5068217;28;20106;-77
2022/07/19 00:49:32;;;;;;;22.67;20.98;;;14.70;99.90;;;;;;5058864;28;20063;-76
2022/07/19 00:52:02;;;;;;;23.40;21.90;;;14.50;99.90;;;;;;5053534;28;20086;-77
2022/07/19 00:54:30;;;;;;;23.00;21.25;;;14.60;99.90;;;;;;5040738;28;20098;-76
2022/07/19 00:56:59;;;;;;;23.23;21.55;;;14.50;99.90;;;;;;5057648;28;20040;-76
2022/07/19 00:59:27;;;;;;;23.08;21.60;;;14.50;99.90;;;;;;5056523;28;20580;-76
2022/07/19 01:01:55;;;;;;;23.67;22.05;;;14.60;99.90;;;;;;5055935;28;20040;-77
2022/07/19 01:04:22;;;;;;;24.25;22.63;;;14.40;99.90;;;;;;5056113;28;20127;-77
2022/07/19 01:06:49;;;;;;;23.85;21.90;;;14.30;99.90;;;;;;5061652;28;20136;-77
2022/07/19 01:09:16;;;;;;;23.85;22.02;;;14.30;99.90;;;;;;5042760;28;20044;-77
2022/07/19 01:11:43;;;;;;;23.38;21.77;;;14.10;99.90;;;;;;5038117;28;20051;-76
2022/07/19 01:14:10;;;;;;;23.40;21.63;;;14.20;99.90;;;;;;5054252;28;20044;-76
2022/07/19 01:16:42;;;;;;;22.50;20.88;;;14.10;99.90;;;;;;5049884;28;20098;-76
2022/07/19 01:19:09;;;;;;;23.10;21.60;;;14.30;99.90;;;;;;5058400;28;20535;-77
2022/07/19 01:21:35;;;;;;;22.23;20.83;;;14.30;99.90;;;;;;5060871;28;20105;-77
2022/07/19 01:24:03;;;;;;;23.13;21.50;;;14.10;99.90;;;;;;5045004;28;20477;-77
2022/07/19 01:26:30;;;;;;;22.42;20.92;;;14.10;99.90;;;;;;5056685;28;20556;-77
2022/07/19 01:28:56;;;;;;;22.75;21.15;;;14.20;99.90;;;;;;5060919;28;20594;-77
2022/07/19 01:31:23;;;;;;;22.65;21.15;;;14.20;99.90;;;;;;5063209;28;20044;-76
2022/07/19 01:33:50;;;;;;;22.10;20.70;;;14.20;99.90;;;;;;5058587;28;20053;-76
2022/07/19 01:36:17;;;;;;;22.73;21.23;;;14.10;99.90;;;;;;5078291;28;20393;-76
2022/07/19 01:38:44;;;;;;;22.40;20.90;;;14.10;99.90;;;;;;5086456;28;20075;-77
2022/07/19 01:41:10;;;;;;;23.38;21.40;;;14.10;99.90;;;;;;5074561;28;20378;-77
2022/07/19 01:43:37;;;;;;;22.92;21.42;;;14.20;99.90;;;;;;5057319;28;20057;-77
2022/07/19 01:46:04;;;;;;;23.63;22.00;;;14.30;99.90;;;;;;5063065;28;20061;-77
2022/07/19 01:48:31;;;;;;;23.25;21.75;;;14.10;99.90;;;;;;5059833;28;20040;-77
2022/07/19 01:50:58;;;;;;;23.17;21.42;;;14.00;99.90;;;;;;5059108;28;20048;-77
2022/07/19 01:53:25;;;;;;;22.70;21.10;;;13.90;99.90;;;;;;5059025;28;20036;-77
2022/07/19 01:55:52;;;;;;;22.83;21.33;;;13.80;99.90;;;;;;5062359;28;20048;-77
2022/07/19 01:58:19;;;;;;;22.75;21.27;;;13.80;99.90;;;;;;5063601;28;20113;-77
2022/07/19 02:00:45;;;;;;;23.30;21.73;;;13.80;99.90;;;;;;5058516;28;20835;-77
2022/07/19 02:03:12;;;;;;;22.05;20.60;;;13.80;99.90;;;;;;5065213;28;20044;-77
2022/07/19 02:05:39;;;;;;;22.50;20.90;;;13.80;99.90;;;;;;5056986;28;20501;-77
2022/07/19 02:08:06;;;;;;;22.20;20.60;;;13.70;99.90;;;;;;5066809;28;21365;-77
2022/07/19 02:10:33;;;;;;;22.23;20.63;;;13.60;99.90;;;;;;5066007;28;20115;-77
2022/07/19 02:13:00;;;;;;;22.65;21.10;;;13.50;99.90;;;;;;5040284;28;20048;-77
2022/07/19 02:15:27;;;;;;;22.67;21.08;;;13.40;99.90;;;;;;5068486;28;20040;-77
2022/07/19 02:17:54;;;;;;;22.02;20.33;;;13.40;99.90;;;;;;5067696;28;20537;-77
2022/07/19 02:20:21;;;;;;;22.83;20.58;;;13.40;99.90;;;;;;5071122;28;20489;-76
2022/07/19 02:22:48;;;;;;;22.77;21.27;;;13.40;99.90;;;;;;5060553;28;20048;-75
2022/07/19 02:25:14;;;;;;;23.30;21.70;;;13.40;99.90;;;;;;5061056;28;20112;-76
2022/07/19 02:27:41;;;;;;;22.10;20.70;;;13.40;99.90;;;;;;5065682;28;20048;-76
2022/07/19 02:30:11;;;;;;;22.65;21.05;;;13.40;99.90;;;;;;5057992;28;20041;-77
2022/07/19 02:32:38;;;;;;;23.70;21.80;;;13.20;99.90;;;;;;5051736;28;20517;-77
2022/07/19 02:35:07;;;;;;;22.70;21.15;;;13.20;99.90;;;;;;5067065;28;20098;-76
2022/07/19 02:37:34;;;;;;;22.73;21.02;;;13.20;99.90;;;;;;5058469;28;20048;-76
2022/07/19 02:40:00;;;;;;;21.88;20.55;;;13.30;99.90;;;;;;5072149;28;20423;-75
2022/07/19 02:42:27;;;;;;;22.77;21.17;;;13.50;99.90;;;;;;5071234;28;20044;-76
2022/07/19 02:44:54;;;;;;;22.05;20.42;;;13.60;99.90;;;;;;5060380;28;20056;-76
2022/07/19 02:47:21;;;;;;;22.25;20.42;;;13.60;99.90;;;;;;5037496;28;20528;-75
2022/07/19 02:49:48;;;;;;;21.10;19.85;;;13.60;99.90;;;;;;5060217;28;20074;-76
2022/07/19 02:52:15;;;;;;;20.98;19.67;;;13.40;99.90;;;;;;5073307;28;20040;-76
2022/07/19 02:54:43;;;;;;;21.80;20.30;;;13.40;99.90;;;;;;5058512;28;20048;-76
2022/07/19 02:57:09;;;;;;;21.98;20.35;;;13.40;99.90;;;;;;5070624;28;20056;-76
2022/07/19 02:59:36;;;;;;;22.83;21.20;;;13.40;99.90;;;;;;5057570;28;20443;-76
2022/07/19 03:02:03;;;;;;;22.17;20.40;;;13.30;99.90;;;;;;5065925;28;20045;-76
2022/07/19 03:04:30;;;;;;;22.10;20.63;;;13.30;99.90;;;;;;5067673;28;20040;-77
2022/07/19 03:06:57;;;;;;;22.25;20.27;;;13.20;99.90;;;;;;5069265;28;20109;-76
2022/07/19 03:09:23;;;;;;;21.48;20.08;;;13.20;99.90;;;;;;5060840;28;20436;-76
2022/07/19 03:11:50;;;;;;;21.80;20.30;;;13.10;99.90;;;;;;5063236;28;20048;-76
2022/07/19 03:14:17;;;;;;;21.77;20.13;;;13.10;99.90;;;;;;5057584;28;20043;-76
2022/07/19 03:16:43;;;;;;;21.95;20.35;;;13.00;99.90;;;;;;5058091;28;20126;-76
2022/07/19 03:19:10;;;;;;;21.55;20.15;;;13.00;99.90;;;;;;5058348;28;20109;-76
2022/07/19 03:21:37;;;;;;;21.40;19.90;;;12.90;99.90;;;;;;5061428;28;20079;-76
2022/07/19 03:24:04;;;;;;;20.75;19.45;;;12.90;99.90;;;;;;5073897;28;20062;-75
2022/07/19 03:26:31;;;;;;;21.15;19.85;;;12.80;99.90;;;;;;5069820;28;20109;-76
2022/07/19 03:28:58;;;;;;;20.85;19.35;;;12.90;99.90;;;;;;5058629;28;20368;-77
2022/07/19 03:31:25;;;;;;;20.77;19.27;;;12.80;99.90;;;;;;5061850;28;20040;-78
2022/07/19 03:33:52;;;;;;;21.63;20.17;;;12.80;99.90;;;;;;5057101;28;20317;-76
2022/07/19 03:36:19;;;;;;;21.58;20.02;;;12.80;99.90;;;;;;5066025;28;20047;-76
2022/07/19 03:38:46;;;;;;;21.13;19.73;;;12.90;99.90;;;;;;5078227;28;20354;-77
2022/07/19 03:41:12;;;;;;;22.38;20.98;;;13.00;99.90;;;;;;5056434;28;20040;-76
2022/07/19 03:43:39;;;;;;;22.55;20.95;;;13.00;99.90;;;;;;5056474;28;20052;-76
2022/07/19 03:46:06;;;;;;;22.15;20.60;;;13.00;99.90;;;;;;5070317;28;20105;-76
2022/07/19 03:48:33;;;;;;;22.77;21.20;;;13.00;99.90;;;;;;5058528;28;20044;-76
2022/07/19 03:51:00;;;;;;;22.02;20.63;;;13.10;99.90;;;;;;5073149;28;20040;-76
2022/07/19 03:53:27;;;;;;;22.23;20.60;;;13.00;99.90;;;;;;5071048;28;20483;-76
2022/07/19 03:55:53;;;;;;;21.85;20.30;;;13.00;99.90;;;;;;5059694;28;20048;-76
2022/07/19 03:58:20;;;;;;;22.35;20.63;;;13.00;99.90;;;;;;5067713;28;20101;-76
2022/07/19 04:00:47;;;;;;;21.45;20.05;;;13.00;99.90;;;;;;5057018;28;20071;-77
2022/07/19 04:03:14;;;;;;;22.38;20.83;;;13.00;99.90;;;;;;5071964;28;20078;-77
2022/07/19 04:05:41;;;;;;;22.40;20.90;;;13.00;99.90;;;;;;5073861;28;20373;-76
2022/07/19 04:08:08;;;;;;;22.17;20.58;;;13.00;99.90;;;;;;5069022;28;20147;-75
2022/07/19 04:10:35;;;;;;;21.73;20.23;;;13.10;99.90;;;;;;5057409;28;20467;-76
2022/07/19 04:13:02;;;;;;;21.30;20.08;;;13.10;99.90;;;;;;5057198;28;20051;-76
2022/07/19 04:15:28;;;;;;;21.15;19.85;;;13.10;99.90;;;;;;5044643;28;20090;-77
2022/07/19 04:17:55;;;;;;;22.35;20.85;;;13.30;99.90;;;;;;5066481;28;20619;-76
2022/07/19 04:20:22;;;;;;;22.75;20.85;;;13.50;99.90;;;;;;5055527;28;20041;-76
2022/07/19 04:22:49;;;;;;;21.38;19.98;;;13.70;99.90;;;;;;5075201;28;20098;-76
2022/07/19 04:25:16;;;;;;;21.00;19.60;;;13.80;99.90;;;;;;5075086;28;20046;-77
2022/07/19 04:27:43;;;;;;;21.08;19.65;;;13.70;99.90;;;;;;5067994;28;20470;-76
2022/07/19 04:30:10;;;;;;;21.77;20.20;;;13.80;99.90;;;;;;5070013;28;20486;-77
2022/07/19 04:32:37;;;;;;;21.52;20.20;;;13.90;99.90;;;;;;5046402;28;20094;-76
2022/07/19 04:35:05;;;;;;;22.42;20.92;;;13.90;99.90;;;;;;5056681;28;20036;-77
2022/07/19 04:37:32;;;;;;;22.67;21.08;;;13.80;99.90;;;;;;5066445;28;20460;-77
2022/07/19 04:39:59;;;;;;;21.83;20.38;;;13.80;99.90;;;;;;5056727;28;20048;-77
2022/07/19 04:42:26;;;;;;;22.63;21.13;;;13.90;99.90;;;;;;5058918;28;20047;-76
2022/07/19 04:44:53;;;;;;;22.25;20.77;;;14.00;99.90;;;;;;5055615;28;20109;-75
2022/07/19 04:47:19;;;;;;;23.13;21.45;;;14.00;99.90;;;;;;5064666;28;20554;-77
2022/07/19 04:49:46;;;;;;;22.23;20.63;;;14.10;99.90;;;;;;5068747;28;20056;-77
2022/07/19 04:52:13;;;;;;;22.92;21.33;;;14.30;99.90;;;;;;5053724;28;20086;-77
2022/07/19 04:54:39;;;;;;;23.63;22.02;;;14.40;99.90;;;;;;5063655;28;20570;-76
2022/07/19 04:57:06;;;;;;;22.65;20.77;;;14.70;99.90;;;;;;5072675;28;20130;-76
2022/07/19 04:59:33;;;;;;;22.80;21.30;;;15.00;99.90;;;;;;5060248;28;20052;-77
2022/07/19 05:02:00;;;;;;;23.55;21.85;;;15.20;99.90;;;;;;5061404;28;20129;-76
2022/07/19 05:04:26;;;;;;;24.40;22.45;;;15.50;99.90;;;;;;5060461;28;20052;-77
2022/07/19 05:06:56;;;;;;;24.42;22.77;;;15.90;99.90;;;;;;5061502;28;20127;-76
2022/07/19 05:09:25;;;;;;;23.80;22.20;;;16.20;99.90;;;;;;5068937;28;20647;-76
2022/07/19 05:11:53;;;;;;;23.55;21.70;;;16.60;99.90;;;;;;5058504;28;20452;-76
2022/07/19 05:14:20;;;;;;;23.85;22.20;;;16.90;99.90;;;;;;5061415;28;20093;-76
2022/07/19 05:16:49;;;;;;;24.10;22.40;;;17.20;99.90;;;;;;5069761;28;20114;-76
2022/07/19 05:19:17;;;;;;;24.58;23.05;;;17.50;99.90;;;;;;5061040;28;20044;-76
2022/07/19 05:21:44;;;;;;;23.50;22.00;;;18.00;99.90;;;;;;5059105;28;20048;-76
2022/07/19 05:24:10;;;;;;;23.55;22.00;;;18.60;99.90;;;;;;5062856;28;20044;-76
2022/07/19 05:26:37;;;;;;;24.58;22.77;;;19.00;99.90;;;;;;5039557;28;20072;-76
2022/07/19 05:29:04;;;;;;;24.35;22.63;;;19.50;99.90;;;;;;5064990;28;20036;-76
2022/07/19 05:31:31;;;;;;;24.70;23.10;;;19.90;99.90;;;;;;5057338;28;20045;-76
2022/07/19 05:33:57;;;;;;;24.95;23.02;;;20.30;99.90;;;;;;5062139;28;20031;-77
2022/07/19 05:36:24;;;;;;;25.52;23.05;;;20.70;99.90;;;;;;5077414;28;20243;-77
2022/07/19 05:38:53;;;;;;;24.40;22.90;;;21.00;99.90;;;;;;5060373;28;20483;-76
2022/07/19 05:41:21;;;;;;;24.77;23.13;;;21.40;99.90;;;;;;5068201;28;20040;-77
2022/07/19 05:43:51;;;;;;;25.50;23.45;;;21.50;99.90;;;;;;5063448;28;20075;-76
2022/07/19 05:46:18;;;;;;;24.60;23.10;;;21.70;99.90;;;;;;5067922;28;20032;-77
2022/07/19 05:48:45;;;;;;;25.70;23.60;;;21.90;99.90;;;;;;5065353;28;20055;-76
2022/07/19 05:51:12;;;;;;;25.25;23.58;;;22.20;99.90;;;;;;5062124;28;20052;-77
2022/07/19 05:53:40;;;;;;;24.73;23.23;;;22.50;99.90;;;;;;5077554;28;20044;-76
2022/07/19 05:56:08;;;;;;;25.15;23.23;;;23.10;99.90;;;;;;5060076;28;20093;-76
2022/07/19 05:58:35;;;;;;;24.70;23.10;;;23.40;99.90;;;;;;5063320;28;20052;-76
2022/07/19 06:01:19;;;;;;;24.85;23.25;;;23.60;99.90;;;;;;5070897;28;20572;-76
2022/07/19 06:03:51;;;;;;;25.30;23.48;;;23.80;99.90;;;;;;5058416;28;20048;-76
2022/07/19 06:06:27;;;;;;;23.52;22.13;;;24.00;99.90;;;;;;5055979;28;20131;-77
2022/07/19 06:08:54;;;;;;;24.05;22.58;;;24.20;99.90;;;;;;5070408;28;20051;-76
2022/07/19 06:11:22;;;;;;;23.90;22.40;;;23.90;99.90;;;;;;5057011;28;20528;-76
2022/07/19 06:13:50;;;;;;;23.88;22.23;;;23.80;99.90;;;;;;5057720;28;20123;-76
2022/07/19 06:16:17;;;;;;;24.55;22.90;;;23.90;99.90;;;;;;5060731;28;20036;-75
2022/07/19 06:18:44;;;;;;;24.85;22.98;;;23.90;99.90;;;;;;5069413;28;20094;-76
2022/07/19 06:21:14;;;;;;;24.58;22.95;;;24.20;99.90;;;;;;5059743;28;20044;-76
2022/07/19 06:23:45;;;;;;;23.98;22.38;;;24.60;99.90;;;;;;5059452;28;20040;-76
2022/07/19 06:26:12;;;;;;;23.58;22.17;;;25.20;99.90;;;;;;5076684;28;20056;-76
2022/07/19 06:28:39;;;;;;;24.52;22.88;;;25.80;99.90;;;;;;5056622;28;20074;-77
2022/07/19 06:31:11;;;;;;;24.80;23.30;;;26.20;99.90;;;;;;5060542;28;20052;-77
2022/07/19 06:33:43;;;;;;;25.33;23.45;;;26.50;99.90;;;;;;5063052;28;20067;-76
2022/07/19 06:36:10;;;;;;;24.70;23.10;;;27.00;99.90;;;;;;5057041;28;20040;-76
2022/07/19 06:38:38;;;;;;;25.02;23.23;;;27.40;99.90;;;;;;5057634;28;20052;-75
2022/07/19 06:41:05;;;;;;;26.00;24.30;;;27.60;99.90;;;;;;5072639;28;20101;-76
2022/07/19 06:43:32;;;;;;;26.23;24.23;;;27.70;99.90;;;;;;5070137;28;20033;-76
2022/07/19 06:45:59;;;;;;;26.27;24.60;;;27.80;99.90;;;;;;5057370;28;20090;-76
2022/07/19 06:48:26;;;;;;;26.92;24.83;;;28.20;99.90;;;;;;5042218;28;20612;-77
2022/07/19 06:50:53;;;;;;;26.05;24.35;;;28.60;99.90;;;;;;5063582;28;20044;-76
2022/07/19 06:53:20;;;;;;;26.27;24.27;;;28.90;99.90;;;;;;5076378;28;20097;-79
2022/07/19 06:55:47;;;;;;;26.75;25.00;;;29.00;99.90;;;;;;5063355;28;20151;-78
2022/07/19 06:58:14;;;;;;;27.60;25.60;;;29.10;99.90;;;;;;5082741;28;20515;-78
2022/07/19 07:00:41;;;;;;;27.35;25.35;;;29.30;99.90;;;;;;5095461;28;20033;-78
2022/07/19 07:03:09;;;;;;;27.38;25.45;;;29.40;99.90;;;;;;5081167;28;20044;-79
2022/07/19 07:05:36;;;;;;;28.38;26.38;;;29.60;99.90;;;;;;5089631;28;20067;-79
2022/07/19 07:08:03;;;;;;;28.20;26.08;;;29.70;99.90;;;;;;5090950;28;20441;-79
2022/07/19 07:10:30;;;;;;;27.40;25.70;;;29.90;99.90;;;;;;5081816;28;20055;-79
2022/07/19 07:12:56;;;;;;;27.50;25.50;;;30.30;99.90;;;;;;5065402;28;20044;-79
2022/07/19 07:15:23;;;;;;;28.08;26.05;;;30.30;99.90;;;;;;5057662;28;20040;-79
2022/07/19 07:17:50;;;;;;;28.15;26.25;;;30.50;98.60;;;;;;5064182;28;20105;-79
2022/07/19 07:20:17;;;;;;;28.48;26.48;;;30.80;99.10;;;;;;5041366;28;20041;-79
2022/07/19 07:22:43;;;;;;;30.33;28.10;;;31.00;98.10;;;;;;5079466;28;20040;-79
2022/07/19 07:25:10;;;;;;;29.10;27.02;;;31.20;97.00;;;;;;5062292;28;20036;-78
2022/07/19 07:27:37;;;;;;;28.42;26.63;;;31.40;97.10;;;;;;5067584;28;20503;-78
2022/07/19 07:30:05;;;;;;;29.50;27.33;;;31.60;96.40;;;;;;5060817;28;21574;-78
2022/07/19 07:32:32;;;;;;;29.48;27.55;;;31.70;94.40;;;;;;5057732;28;20037;-79
2022/07/19 07:34:59;;;;;;;29.65;27.75;;;31.50;94.20;;;;;;5058281;28;20052;-78
2022/07/19 07:37:26;;;;;;;29.92;27.80;;;31.40;95.20;;;;;;5059121;28;20048;-78
2022/07/19 07:39:53;;;;;;;30.30;28.13;;;31.60;94.10;;;;;;5063620;28;20097;-79
2022/07/19 07:42:21;;;;;;;30.30;28.48;;;31.50;92.90;;;;;;5071231;28;20039;-78
2022/07/19 07:44:48;;;;;;;31.38;29.27;;;31.40;92.50;;;;;;5057007;28;20056;-79
2022/07/19 07:47:14;;;;;;;30.27;28.27;;;31.40;92.20;;;;;;5069372;28;20044;-78
2022/07/19 07:49:41;;;;;;;30.90;28.80;;;31.20;91.70;;;;;;5074184;28;20496;-80
2022/07/19 07:52:08;;;;;;;31.05;28.80;;;31.20;93.20;;;;;;5059284;28;20125;-77
2022/07/19 07:54:35;;;;;;;30.58;28.63;;;31.40;92.30;;;;;;5066760;28;20105;-80
2022/07/19 07:57:10;;;;;;;31.10;28.75;;;31.50;92.10;;;;;;5070916;28;20055;-78
2022/07/19 07:59:36;;;;;;;31.10;29.15;;;31.60;91.20;;;;;;5068772;28;21336;-79
2022/07/19 08:02:03;;;;;;;32.58;30.30;;;31.70;92.90;;;;;;5076443;28;20048;-76
2022/07/19 08:04:30;;;;;;;31.15;29.15;;;31.80;90.40;;;;;;5078723;28;20047;-78
2022/07/19 08:06:58;;;;;;;30.48;28.58;;;32.00;90.80;;;;;;5060540;28;20045;-79
2022/07/19 08:09:24;;;;;;;31.08;29.08;;;31.90;89.90;;;;;;5059905;28;20044;-78
2022/07/19 08:11:51;;;;;;;31.60;29.15;;;31.80;89.20;;;;;;5067643;28;20044;-76
2022/07/19 08:14:18;;;;;;;32.92;30.60;;;32.00;88.70;;;;;;5064015;28;20039;-79
2022/07/19 08:16:45;;;;;;;32.70;30.45;;;32.10;88.90;;;;;;5057108;28;20052;-79
2022/07/19 08:19:12;;;;;;;32.13;29.90;;;32.20;88.70;;;;;;5065433;28;20576;-79
2022/07/19 08:21:39;;;;;;;31.30;29.30;;;32.30;87.90;;;;;;5062249;28;20451;-79
2022/07/19 08:24:06;;;;;;;32.17;30.08;;;32.50;87.20;;;;;;5043129;28;20059;-79
2022/07/19 08:26:39;;;;;;;31.38;29.42;;;32.50;87.50;;;;;;5070895;28;20074;-80
2022/07/19 08:29:05;;;;;;;33.17;30.90;;;32.40;87.40;;;;;;5064274;28;20468;-79
2022/07/19 08:31:32;;;;;;;33.28;31.17;;;32.60;88.30;;;;;;5073300;28;20037;-80
2022/07/19 08:33:59;;;;;;;33.85;31.73;;;32.70;89.20;;;;;;5071934;28;20122;-80
2022/07/19 08:36:26;;;;;;;34.10;31.92;;;33.00;86.50;;;;;;5057352;28;20104;-80
2022/07/19 08:38:53;;;;;;;33.75;31.67;;;33.20;85.60;;;;;;5056178;28;20052;-79
2022/07/19 08:41:20;;;;;;;33.35;31.15;;;32.90;86.00;;;;;;5056804;28;20496;-78
2022/07/19 08:43:49;;;;;;;33.28;31.40;;;32.90;85.90;;;;;;5051200;28;20051;-79
2022/07/19 08:46:20;;;;;;;34.97;32.97;;;32.90;84.40;;;;;;5060573;28;20614;-79
2022/07/19 08:48:48;;;;;;;34.05;31.92;;;32.90;83.70;;;;;;5068576;28;20044;-81
2022/07/19 08:51:20;;;;;;;35.50;33.13;;;33.00;84.80;;;;;;5053524;28;20040;-79
2022/07/19 08:53:49;;;;;;;34.03;31.98;;;32.90;81.60;;;;;;5059655;28;20441;-80
2022/07/19 08:59:06;;;;;;;33.03;30.92;;;33.00;79.60;;;;;;5070292;28;20052;-79
2022/07/19 09:01:33;;;;;;;35.47;33.05;;;32.80;79.40;;;;;;5039951;28;20491;-79
2022/07/19 09:04:06;;;;;;;33.95;31.95;;;32.90;79.60;;;;;;5067979;28;20054;-78
2022/07/19 09:06:51;;;;;;;35.53;33.28;;;32.80;80.40;;;;;;5068991;28;20097;-79
2022/07/19 09:09:20;;;;;;;34.83;32.47;;;32.90;81.80;;;;;;5067379;28;20071;-79
2022/07/19 09:11:51;;;;;;;35.70;33.30;;;33.30;81.80;;;;;;5065465;28;20042;-78
2022/07/19 09:14:30;;;;;;;35.72;33.53;;;32.90;78.70;;;;;;5059329;28;20040;-79
2022/07/19 09:17:13;;;;;;;36.25;33.92;;;32.30;78.80;;;;;;5055406;28;20053;-79
2022/07/19 09:19:43;;;;;;;35.63;33.20;;;31.90;78.70;;;;;;5041492;28;20048;-78
2022/07/19 09:22:16;;;;;;;36.38;34.08;;;31.60;79.90;;;;;;5074642;28;20102;-80
2022/07/19 09:24:49;;;;;;;35.83;33.42;;;31.70;78.30;;;;;;5058195;28;20040;-79
2022/07/19 09:27:26;;;;;;;36.75;34.45;;;32.20;78.70;;;;;;5060909;28;20047;-81
2022/07/19 09:29:55;;;;;;;34.80;32.70;;;32.20;76.50;;;;;;5056330;28;20098;-78
2022/07/19 09:32:23;;;;;;;36.25;33.97;;;32.20;78.90;;;;;;5053937;28;20037;-79
2022/07/19 09:35:01;;;;;;;37.08;34.55;;;32.50;80.00;;;;;;5066263;28;20460;-78
2022/07/19 09:37:32;;;;;;;36.75;34.30;;;32.70;78.20;;;;;;5055177;28;20045;-78
2022/07/19 09:40:03;;;;;;;37.67;35.13;;;32.20;79.50;;;;;;5079398;28;20056;-80
2022/07/19 09:42:37;;;;;;;30.55;28.55;;;32.00;77.80;;;;;;5045121;28;20040;-79
2022/07/19 09:45:20;;;;;;;36.85;34.33;;;32.70;77.90;;;;;;5066437;28;20087;-79
2022/07/19 09:47:48;;;;;;;37.97;35.38;;;32.50;78.20;;;;;;5069059;28;20701;-79
2022/07/19 09:50:17;;;;;;;35.80;33.58;;;32.60;78.00;;;;;;5076227;28;20032;-79
2022/07/19 09:52:50;;;;;;;35.45;33.30;;;33.10;77.00;;;;;;5056989;28;20044;-80
2022/07/19 09:55:19;;;;;;;35.63;33.22;;;33.20;77.60;;;;;;5060283;28;20044;-81
2022/07/19 09:57:48;;;;;;;33.50;31.50;;;33.60;74.20;;;;;;5069963;28;20401;-79
2022/07/19 10:00:17;;;;;;;35.28;33.00;;;33.90;74.50;;;;;;5061596;28;20036;-79
2022/07/19 10:02:48;;;;;;;35.47;33.17;;;34.50;73.10;;;;;;5071108;28;20432;-78
2022/07/19 10:05:15;;;;;;;34.53;32.53;;;34.30;75.40;;;;;;5071106;28;20562;-79
2022/07/19 10:07:42;;;;;;;36.20;34.10;;;34.20;73.00;;;;;;5060566;28;20118;-78
2022/07/19 10:10:12;;;;;;;36.22;34.03;;;34.20;72.70;;;;;;5056977;28;20282;-78
2022/07/19 10:12:41;;;;;;;36.05;33.85;;;34.10;69.10;;;;;;5074163;28;20052;-79
2022/07/19 10:15:11;;;;;;;35.97;33.55;;;34.20;70.00;;;;;;5049853;28;20051;-80
2022/07/19 10:18:05;;;;;;;36.08;33.40;;;34.30;70.70;;;;;;5057029;28;20044;-79
2022/07/19 10:20:33;;;;;;;34.83;32.72;;;34.40;70.50;;;;;;5056247;28;20052;-79
2022/07/19 10:23:01;;;;;;;35.17;32.97;;;34.30;70.80;;;;;;5074797;28;20059;-78
2022/07/19 10:25:41;;;;;;;37.00;34.28;;;34.30;70.90;;;;;;5071994;28;20485;-79
2022/07/19 10:28:34;;;;;;;35.70;33.50;;;34.60;73.80;;;;;;5068461;28;20547;-79
2022/07/19 10:31:30;;;;;;;37.00;34.45;;;34.70;71.70;;;;;;5060132;28;20040;-79
2022/07/19 10:34:07;;;;;;;35.63;33.25;;;34.20;69.30;;;;;;5060308;28;20044;-79
2022/07/19 10:36:39;;;;;;;36.38;34.13;;;34.20;71.00;;;;;;5055818;28;20051;-80
2022/07/19 10:39:17;;;;;;;35.38;33.05;;;34.20;69.10;;;;;;5075948;28;20044;-79
2022/07/19 10:42:03;;;;;;;34.63;32.22;;;34.20;68.80;;;;;;5057379;28;20090;-79
2022/07/19 10:44:31;;;;;;;36.58;34.13;;;33.80;69.30;;;;;;5060563;28;20773;-79
2022/07/19 10:46:57;;;;;;;35.03;32.83;;;34.00;69.00;;;;;;5059397;28;20071;-78
2022/07/19 10:49:44;;;;;;;33.97;31.88;;;34.20;66.70;;;;;;5059526;28;20108;-79
2022/07/19 10:52:28;;;;;;;35.88;33.15;;;33.90;67.40;;;;;;5057636;28;20059;-76
2022/07/19 10:55:24;;;;;;;35.05;32.92;;;34.20;66.20;;;;;;5076654;28;20054;-79
2022/07/19 10:58:06;;;;;;;34.97;32.70;;;34.30;67.50;;;;;;5070931;28;20056;-78
2022/07/19 11:00:41;;;;;;;35.38;33.08;;;34.50;68.40;;;;;;5071920;28;20497;-78
2022/07/19 11:03:21;;;;;;;33.50;31.30;;;34.70;67.00;;;;;;5058083;28;20429;-79
2022/07/19 11:05:59;;;;;;;33.42;31.02;;;34.80;65.50;;;;;;5061332;28;20508;-78
2022/07/19 11:08:32;;;;;;;34.70;32.50;;;34.90;64.50;;;;;;5082126;28;20272;-77
2022/07/19 11:11:19;;;;;;;34.60;32.40;;;35.10;61.90;;;;;;5073578;28;20097;-77
2022/07/19 11:13:51;;;;;;;35.88;33.45;;;35.20;63.60;;;;;;5078494;28;20051;-78
2022/07/19 11:16:18;;;;;;;35.53;33.40;;;34.80;65.80;;;;;;5060881;28;20036;-77
2022/07/19 11:18:46;;;;;;;35.60;33.45;;;35.00;64.70;;;;;;5068783;28;20052;-77
2022/07/19 11:21:15;;;;;;;35.85;33.55;;;35.10;61.80;;;;;;5058169;28;20066;-77
2022/07/19 11:23:44;;;;;;;35.05;32.72;;;35.30;61.30;;;;;;5058422;28;20063;-78
2022/07/19 11:26:20;;;;;;;35.15;32.83;;;35.00;61.90;;;;;;5056683;28;20048;-78
2022/07/19 11:28:48;;;;;;;34.25;32.25;;;35.10;63.90;;;;;;5064234;28;20046;-77
2022/07/19 11:31:15;;;;;;;34.78;32.65;;;35.10;64.60;;;;;;5065991;28;20040;-77
2022/07/19 11:33:43;;;;;;;36.00;33.63;;;34.80;62.90;;;;;;5073559;28;20047;-76
2022/07/19 11:36:11;;;;;;;35.53;33.13;;;35.10;62.30;;;;;;5059550;28;20055;-77
2022/07/19 11:38:50;;;;;;;34.92;32.72;;;35.30;61.10;;;;;;5063961;28;20721;-78
2022/07/19 11:41:20;;;;;;;35.00;32.75;;;35.40;60.90;;;;;;5060668;28;20043;-78
2022/07/19 11:43:58;;;;;;;35.58;33.42;;;35.10;61.60;;;;;;5074947;28;20594;-77
2022/07/19 11:46:28;;;;;;;35.85;33.50;;;34.90;61.90;;;;;;5060099;28;20788;-79
2022/07/19 11:48:58;;;;;;;34.88;32.78;;;34.80;63.10;;;;;;5079082;28;20044;-77
2022/07/19 11:51:25;;;;;;;36.28;34.05;;;34.40;62.60;;;;;;5067559;28;20052;-78
2022/07/19 11:53:55;;;;;;;37.20;34.53;;;34.30;62.60;;;;;;5064859;28;20048;-78
2022/07/19 11:56:28;;;;;;;36.40;33.90;;;34.50;59.10;;;;;;5060035;28;20044;-78
2022/07/19 11:58:57;;;;;;;35.97;33.47;;;34.60;60.50;;;;;;5061005;28;20398;-77
2022/07/19 12:01:30;;;;;;;37.38;34.67;;;34.50;62.20;;;;;;5053631;28;20044;-78
2022/07/19 12:04:08;;;;;;;35.40;33.20;;;34.30;62.60;;;;;;5079684;28;20044;-77
2022/07/19 12:06:50;;;;;;;36.95;34.45;;;34.80;62.20;;;;;;5075942;28;20607;-78
2022/07/19 12:09:27;;;;;;;35.63;33.22;;;34.90;61.20;;;;;;5063592;28;20189;-78
2022/07/19 12:11:55;;;;;;;37.03;34.42;;;35.30;61.00;;;;;;5076234;28;20044;-76
2022/07/19 12:14:26;;;;;;;35.53;33.13;;;35.40;59.90;;;;;;5060386;28;20211;-76
2022/07/19 12:17:16;;;;;;;35.47;32.97;;;35.70;59.50;;;;;;5059438;28;20093;-77
2022/07/19 12:19:48;;;;;;;36.45;34.15;;;35.90;59.90;;;;;;5079222;28;20082;-74
2022/07/19 12:22:39;;;;;;;37.42;34.88;;;36.10;59.40;;;;;;5056945;28;20048;-76
2022/07/19 12:25:08;;;;;;;35.78;33.47;;;35.90;58.90;;;;;;5077345;28;20185;-78
2022/07/19 12:27:36;;;;;;;36.95;34.45;;;35.60;61.00;;;;;;5074255;28;20695;-78
2022/07/19 12:30:05;;;;;;;36.65;34.08;;;35.60;59.50;;;;;;5074660;28;20056;-77
2022/07/19 12:32:34;;;;;;;36.65;34.30;;;35.50;60.10;;;;;;5062720;28;20051;-78
2022/07/19 12:35:14;;;;;;;38.00;35.45;;;35.50;59.30;;;;;;5082376;28;20413;-78
2022/07/19 12:37:46;;;;;;;37.40;35.00;;;35.50;60.90;;;;;;5078216;28;20040;-78
2022/07/19 12:40:21;;;;;;;37.30;34.83;;;35.40;58.90;;;;;;5067166;28;20044;-76